sensor_id;sensor_type;location;lat;lon;timestamp;pressure;altitude;pressure_sealevel;temperature;humidity
8894;BME280;4483;48.622;9.230;2022-09-03T00:00:48;97488.56;;;16.18;90.47
8894;BME280;4483;48.622;9.230;2022-09-03T00:03:21;97484.09;;;16.20;90.22
8894;BME280;4483;48.622;9.230;2022-09-03T00:05:52;97475.28;;;16.22;90.48
8894;BME280;4483;48.622;9.230;2022-09-03T00:08:26;97472.56;;;16.24;90.36
8894;BME280;4483;48.622;9.230;2022-09-03T00:11:00;97473.59;;;16.21;90.69
8894;BME280;4483;48.622;9.230;2022-09-03T00:13:32;97475.59;;;16.18;90.63
8894;BME280;4483;48.622;9.230;2022-09-03T00:16:02;97474.56;;;16.20;91.05
8894;BME280;4483;48.622;9.230;2022-09-03T00:18:41;97475.28;;;16.22;90.60
8894;BME280;4483;48.622;9.230;2022-09-03T00:21:11;97477.88;;;16.22;90.99
8894;BME280;4483;48.622;9.230;2022-09-03T00:23:41;97478.69;;;16.23;91.08
8894;BME280;4483;48.622;9.230;2022-09-03T00:26:19;97482.34;;;16.20;90.04
8894;BME280;4483;48.622;9.230;2022-09-03T00:28:54;97474.84;;;16.16;90.37
8894;BME280;4483;48.622;9.230;2022-09-03T00:31:27;97474.03;;;16.15;90.24
8894;BME280;4483;48.622;9.230;2022-09-03T00:33:59;97483.59;;;16.15;90.37
8894;BME280;4483;48.622;9.230;2022-09-03T00:36:33;97477.34;;;16.17;90.51
8894;BME280;4483;48.622;9.230;2022-09-03T00:39:01;97485.13;;;16.17;90.80
8894;BME280;4483;48.622;9.230;2022-09-03T00:41:34;97472.16;;;16.17;90.64
8894;BME280;4483;48.622;9.230;2022-09-03T00:44:31;97477.88;;;16.22;90.18
8894;BME280;4483;48.622;9.230;2022-09-03T00:47:08;97475.91;;;16.26;90.56
8894;BME280;4483;48.622;9.230;2022-09-03T00:49:45;97468.00;;;16.27;90.36
8894;BME280;4483;48.622;9.230;2022-09-03T00:52:18;97476.72;;;16.26;89.96
8894;BME280;4483;48.622;9.230;2022-09-03T00:54:57;97473.19;;;16.27;90.83
8894;BME280;4483;48.622;9.230;2022-09-03T00:57:37;97479.22;;;16.28;90.47
8894;BME280;4483;48.622;9.230;2022-09-03T01:00:10;97480.16;;;16.27;90.79
8894;BME280;4483;48.622;9.230;2022-09-03T01:02:54;97469.97;;;16.24;90.64
8894;BME280;4483;48.622;9.230;2022-09-03T01:05:48;97463.72;;;16.26;90.72
8894;BME280;4483;48.622;9.230;2022-09-03T01:08:44;97467.78;;;16.30;91.11
8894;BME280;4483;48.622;9.230;2022-09-03T01:11:20;97474.94;;;16.27;90.64
8894;BME280;4483;48.622;9.230;2022-09-03T01:13:56;97472.69;;;16.22;91.02
8894;BME280;4483;48.622;9.230;2022-09-03T01:16:33;97471.13;;;16.20;91.19
8894;BME280;4483;48.622;9.230;2022-09-03T01:19:11;97460.22;;;16.15;90.95
8894;BME280;4483;48.622;9.230;2022-09-03T01:22:05;97467.59;;;16.21;91.35
8894;BME280;4483;48.622;9.230;2022-09-03T01:24:54;97467.59;;;16.21;91.17
8894;BME280;4483;48.622;9.230;2022-09-03T01:27:38;97467.28;;;16.13;91.11
8894;BME280;4483;48.622;9.230;2022-09-03T01:30:11;97466.16;;;16.04;91.27
8894;BME280;4483;48.622;9.230;2022-09-03T01:32:47;97461.88;;;16.03;91.86
8894;BME280;4483;48.622;9.230;2022-09-03T01:35:22;97470.50;;;16.03;92.18
8894;BME280;4483;48.622;9.230;2022-09-03T01:38:04;97466.16;;;16.04;92.03
8894;BME280;4483;48.622;9.230;2022-09-03T01:40:41;97474.63;;;16.06;92.55
8894;BME280;4483;48.622;9.230;2022-09-03T01:43:22;97476.53;;;16.04;92.50
8894;BME280;4483;48.622;9.230;2022-09-03T01:46:03;97474.88;;;16.03;92.21
8894;BME280;4483;48.622;9.230;2022-09-03T01:48:40;97480.06;;;16.03;92.48
8894;BME280;4483;48.622;9.230;2022-09-03T01:51:16;97476.72;;;16.01;92.65
8894;BME280;4483;48.622;9.230;2022-09-03T01:53:58;97483.59;;;16.02;92.77
8894;BME280;4483;48.622;9.230;2022-09-03T01:56:41;97489.72;;;16.01;92.95
8894;BME280;4483;48.622;9.230;2022-09-03T01:59:17;97494.19;;;15.99;93.08
8894;BME280;4483;48.622;9.230;2022-09-03T02:01:52;97493.16;;;16.01;93.15
8894;BME280;4483;48.622;9.230;2022-09-03T02:04:24;97481.09;;;16.00;93.06
8894;BME280;4483;48.622;9.230;2022-09-03T02:06:51;97489.00;;;15.99;93.35
8894;BME280;4483;48.622;9.230;2022-09-03T02:09:19;97491.59;;;15.99;93.33
8894;BME280;4483;48.622;9.230;2022-09-03T02:11:50;97488.06;;;16.00;93.43
8894;BME280;4483;48.622;9.230;2022-09-03T02:14:19;97487.34;;;15.98;93.11
8894;BME280;4483;48.622;9.230;2022-09-03T02:16:47;97491.69;;;15.97;92.94
8894;BME280;4483;48.622;9.230;2022-09-03T02:19:15;97500.22;;;15.99;93.30
8894;BME280;4483;48.622;9.230;2022-09-03T02:21:46;97495.75;;;16.01;93.28
8894;BME280;4483;48.622;9.230;2022-09-03T02:24:14;97490.66;;;16.00;92.81
8894;BME280;4483;48.622;9.230;2022-09-03T02:26:40;97484.63;;;15.99;93.21
8894;BME280;4483;48.622;9.230;2022-09-03T02:29:07;97486.63;;;15.96;93.01
8894;BME280;4483;48.622;9.230;2022-09-03T02:31:35;97491.19;;;15.92;93.32
8894;BME280;4483;48.622;9.230;2022-09-03T02:34:04;97489.50;;;15.91;93.18
8894;BME280;4483;48.622;9.230;2022-09-03T02:36:33;97490.56;;;15.89;93.18
8894;BME280;4483;48.622;9.230;2022-09-03T02:39:01;97488.88;;;15.88;93.34
8894;BME280;4483;48.622;9.230;2022-09-03T02:41:28;97488.16;;;15.86;93.66
8894;BME280;4483;48.622;9.230;2022-09-03T02:43:58;97484.84;;;15.84;93.86
8894;BME280;4483;48.622;9.230;2022-09-03T02:46:32;97488.38;;;15.83;93.36
8894;BME280;4483;48.622;9.230;2022-09-03T02:49:00;97481.72;;;15.79;93.93
8894;BME280;4483;48.622;9.230;2022-09-03T02:51:32;97486.09;;;15.78;93.99
8894;BME280;4483;48.622;9.230;2022-09-03T02:54:00;97485.44;;;15.75;93.72
8894;BME280;4483;48.622;9.230;2022-09-03T02:56:27;97487.97;;;15.76;93.79
8894;BME280;4483;48.622;9.230;2022-09-03T02:58:54;97488.88;;;15.75;93.91
8894;BME280;4483;48.622;9.230;2022-09-03T03:01:21;97491.69;;;15.72;94.21
8894;BME280;4483;48.622;9.230;2022-09-03T03:03:49;97486.72;;;15.69;94.01
8894;BME280;4483;48.622;9.230;2022-09-03T03:06:15;97493.78;;;15.67;94.11
8894;BME280;4483;48.622;9.230;2022-09-03T03:08:47;97488.88;;;15.63;94.64
8894;BME280;4483;48.622;9.230;2022-09-03T03:11:15;97489.06;;;15.60;94.56
8894;BME280;4483;48.622;9.230;2022-09-03T03:13:43;97488.34;;;15.58;94.63
8894;BME280;4483;48.622;9.230;2022-09-03T03:16:13;97489.47;;;15.54;95.23
8894;BME280;4483;48.622;9.230;2022-09-03T03:18:39;97493.00;;;15.53;94.65
8894;BME280;4483;48.622;9.230;2022-09-03T03:21:08;97492.28;;;15.51;95.45
8894;BME280;4483;48.622;9.230;2022-09-03T03:23:36;97489.69;;;15.51;95.20
8894;BME280;4483;48.622;9.230;2022-09-03T03:26:06;97489.75;;;15.49;95.37
8894;BME280;4483;48.622;9.230;2022-09-03T03:28:34;97492.47;;;15.48;94.97
8894;BME280;4483;48.622;9.230;2022-09-03T03:31:04;97494.44;;;15.44;94.78
8894;BME280;4483;48.622;9.230;2022-09-03T03:33:31;97494.53;;;15.43;94.70
8894;BME280;4483;48.622;9.230;2022-09-03T03:36:03;97489.34;;;15.43;94.76
8894;BME280;4483;48.622;9.230;2022-09-03T03:38:29;97497.41;;;15.38;95.15
8894;BME280;4483;48.622;9.230;2022-09-03T03:40:56;97494.25;;;15.33;95.27
8894;BME280;4483;48.622;9.230;2022-09-03T03:43:24;97502.25;;;15.30;95.32
8894;BME280;4483;48.622;9.230;2022-09-03T03:45:55;97510.31;;;15.26;95.57
8894;BME280;4483;48.622;9.230;2022-09-03T03:48:22;97510.44;;;15.24;96.49
8894;BME280;4483;48.622;9.230;2022-09-03T03:50:49;97511.28;;;15.25;96.00
8894;BME280;4483;48.622;9.230;2022-09-03T03:53:16;97501.91;;;15.22;96.35
8894;BME280;4483;48.622;9.230;2022-09-03T03:55:42;97506.91;;;15.25;96.25
8894;BME280;4483;48.622;9.230;2022-09-03T03:58:09;97508.66;;;15.25;96.32
8894;BME280;4483;48.622;9.230;2022-09-03T04:00:37;97510.44;;;15.24;96.51
8894;BME280;4483;48.622;9.230;2022-09-03T04:03:04;97510.31;;;15.26;96.79
8894;BME280;4483;48.622;9.230;2022-09-03T04:05:30;97508.88;;;15.22;96.79
8894;BME280;4483;48.622;9.230;2022-09-03T04:08:00;97509.16;;;15.17;96.96
8894;BME280;4483;48.622;9.230;2022-09-03T04:10:27;97506.66;;;15.16;97.04
8894;BME280;4483;48.622;9.230;2022-09-03T04:12:54;97501.38;;;15.17;96.97
8894;BME280;4483;48.622;9.230;2022-09-03T04:15:20;97503.97;;;15.17;97.36
8894;BME280;4483;48.622;9.230;2022-09-03T04:17:48;97507.19;;;15.21;97.31
8894;BME280;4483;48.622;9.230;2022-09-03T04:20:15;97493.31;;;15.22;97.39
8894;BME280;4483;48.622;9.230;2022-09-03T04:22:42;97505.25;;;15.24;97.45
8894;BME280;4483;48.622;9.230;2022-09-03T04:25:08;97501.09;;;15.22;97.08
8894;BME280;4483;48.622;9.230;2022-09-03T04:27:35;97504.59;;;15.21;98.10
8894;BME280;4483;48.622;9.230;2022-09-03T04:30:03;97497.75;;;15.20;98.31
8894;BME280;4483;48.622;9.230;2022-09-03T04:32:30;97500.44;;;15.18;98.00
8894;BME280;4483;48.622;9.230;2022-09-03T04:35:15;97504.06;;;15.16;98.32
8894;BME280;4483;48.622;9.230;2022-09-03T04:37:42;97500.63;;;15.15;98.70
8894;BME280;4483;48.622;9.230;2022-09-03T04:40:09;97506.66;;;15.16;98.08
8894;BME280;4483;48.622;9.230;2022-09-03T04:42:36;97500.84;;;15.12;98.62
8894;BME280;4483;48.622;9.230;2022-09-03T04:45:03;97504.28;;;15.13;98.33
8894;BME280;4483;48.622;9.230;2022-09-03T04:47:29;97505.09;;;15.13;98.73
8894;BME280;4483;48.622;9.230;2022-09-03T04:49:56;97511.75;;;15.17;99.46
8894;BME280;4483;48.622;9.230;2022-09-03T04:52:24;97506.34;;;15.20;98.74
8894;BME280;4483;48.622;9.230;2022-09-03T04:54:55;97513.13;;;15.23;98.82
8894;BME280;4483;48.622;9.230;2022-09-03T04:57:22;97510.63;;;15.21;98.75
8894;BME280;4483;48.622;9.230;2022-09-03T04:59:49;97511.47;;;15.22;98.91
8894;BME280;4483;48.622;9.230;2022-09-03T05:02:16;97506.19;;;15.23;99.06
8894;BME280;4483;48.622;9.230;2022-09-03T05:04:43;97512.91;;;15.26;99.16
8894;BME280;4483;48.622;9.230;2022-09-03T05:07:11;97515.50;;;15.26;98.93
8894;BME280;4483;48.622;9.230;2022-09-03T05:09:39;97511.06;;;15.28;99.75
8894;BME280;4483;48.622;9.230;2022-09-03T05:12:06;97516.16;;;15.29;98.73
8894;BME280;4483;48.622;9.230;2022-09-03T05:14:33;97518.09;;;15.26;99.06
8894;BME280;4483;48.622;9.230;2022-09-03T05:17:00;97509.78;;;15.21;99.26
8894;BME280;4483;48.622;9.230;2022-09-03T05:19:26;97508.03;;;15.21;99.58
8894;BME280;4483;48.622;9.230;2022-09-03T05:21:53;97513.03;;;15.24;99.93
8894;BME280;4483;48.622;9.230;2022-09-03T05:24:20;97512.91;;;15.26;99.60
8894;BME280;4483;48.622;9.230;2022-09-03T05:26:48;97512.75;;;15.29;99.37
8894;BME280;4483;48.622;9.230;2022-09-03T05:29:14;97511.69;;;15.31;99.84
8894;BME280;4483;48.622;9.230;2022-09-03T05:31:41;97519.19;;;15.36;99.42
8894;BME280;4483;48.622;9.230;2022-09-03T05:34:08;97513.78;;;15.39;99.70
8894;BME280;4483;48.622;9.230;2022-09-03T05:36:36;97514.56;;;15.41;99.51
8894;BME280;4483;48.622;9.230;2022-09-03T05:39:04;97505.75;;;15.43;99.21
8894;BME280;4483;48.622;9.230;2022-09-03T05:41:31;97520.09;;;15.49;98.97
8894;BME280;4483;48.622;9.230;2022-09-03T05:44:00;97516.38;;;15.53;99.14
8894;BME280;4483;48.622;9.230;2022-09-03T05:46:29;97523.22;;;15.54;98.65
8894;BME280;4483;48.622;9.230;2022-09-03T05:48:57;97519.69;;;15.55;99.08
8894;BME280;4483;48.622;9.230;2022-09-03T05:51:24;97524.69;;;15.58;99.29
8894;BME280;4483;48.622;9.230;2022-09-03T05:53:51;97516.81;;;15.59;99.10
8894;BME280;4483;48.622;9.230;2022-09-03T05:56:21;97532.78;;;15.66;99.26
8894;BME280;4483;48.622;9.230;2022-09-03T05:58:49;97533.34;;;15.71;98.90
8894;BME280;4483;48.622;9.230;2022-09-03T06:01:19;97535.53;;;15.77;99.34
8894;BME280;4483;48.622;9.230;2022-09-03T06:03:47;97528.16;;;15.83;98.74
8894;BME280;4483;48.622;9.230;2022-09-03T06:06:19;97544.16;;;15.90;98.56
8894;BME280;4483;48.622;9.230;2022-09-03T06:08:48;97545.34;;;15.98;98.67
8894;BME280;4483;48.622;9.230;2022-09-03T06:11:15;97532.03;;;16.03;98.00
8894;BME280;4483;48.622;9.230;2022-09-03T06:13:42;97529.44;;;16.03;98.15
8894;BME280;4483;48.622;9.230;2022-09-03T06:16:09;97533.72;;;16.04;98.14
8894;BME280;4483;48.622;9.230;2022-09-03T06:18:37;97538.59;;;16.08;97.92
8894;BME280;4483;48.622;9.230;2022-09-03T06:21:05;97539.94;;;16.14;97.90
8894;BME280;4483;48.622;9.230;2022-09-03T06:23:34;97549.41;;;16.15;98.13
8894;BME280;4483;48.622;9.230;2022-09-03T06:26:02;97536.94;;;16.20;97.91
8894;BME280;4483;48.622;9.230;2022-09-03T06:28:29;97539.94;;;16.27;97.73
8894;BME280;4483;48.622;9.230;2022-09-03T06:30:57;97538.69;;;16.32;97.61
8894;BME280;4483;48.622;9.230;2022-09-03T06:33:24;97534.72;;;16.39;97.26
8894;BME280;4483;48.622;9.230;2022-09-03T06:35:53;97534.13;;;16.48;97.12
8894;BME280;4483;48.622;9.230;2022-09-03T06:38:24;97535.28;;;16.57;97.29
8894;BME280;4483;48.622;9.230;2022-09-03T06:40:53;97527.88;;;16.63;97.02
8894;BME280;4483;48.622;9.230;2022-09-03T06:43:20;97534.91;;;16.74;96.75
8894;BME280;4483;48.622;9.230;2022-09-03T06:45:58;97533.97;;;16.87;96.38
8894;BME280;4483;48.622;9.230;2022-09-03T06:48:25;97530.59;;;16.98;96.05
8894;BME280;4483;48.622;9.230;2022-09-03T06:50:55;97528.91;;;17.09;95.55
8894;BME280;4483;48.622;9.230;2022-09-03T06:53:24;97522.06;;;17.20;95.00
8894;BME280;4483;48.622;9.230;2022-09-03T06:55:55;97523.09;;;17.30;94.71
8894;BME280;4483;48.622;9.230;2022-09-03T06:58:22;97533.06;;;17.36;94.12
8894;BME280;4483;48.622;9.230;2022-09-03T07:00:49;97519.69;;;17.40;93.84
8894;BME280;4483;48.622;9.230;2022-09-03T07:03:16;97525.50;;;17.44;93.67
8894;BME280;4483;48.622;9.230;2022-09-03T07:05:44;97534.06;;;17.46;93.33
8894;BME280;4483;48.622;9.230;2022-09-03T07:08:12;97532.41;;;17.45;93.63
8894;BME280;4483;48.622;9.230;2022-09-03T07:10:38;97527.91;;;17.47;93.41
8894;BME280;4483;48.622;9.230;2022-09-03T07:13:07;97532.19;;;17.48;93.49
8894;BME280;4483;48.622;9.230;2022-09-03T07:15:34;97528.44;;;17.52;93.13
8894;BME280;4483;48.622;9.230;2022-09-03T07:18:00;97530.09;;;17.53;93.07
8894;BME280;4483;48.622;9.230;2022-09-03T07:20:27;97522.78;;;17.58;93.27
8894;BME280;4483;48.622;9.230;2022-09-03T07:22:54;97526.00;;;17.61;92.70
8894;BME280;4483;48.622;9.230;2022-09-03T07:25:23;97523.03;;;17.66;92.81
8894;BME280;4483;48.622;9.230;2022-09-03T07:27:51;97526.97;;;17.71;92.58
8894;BME280;4483;48.622;9.230;2022-09-03T07:30:18;97529.25;;;17.76;92.46
8894;BME280;4483;48.622;9.230;2022-09-03T07:32:45;97521.19;;;17.79;92.31
8894;BME280;4483;48.622;9.230;2022-09-03T07:35:12;97525.22;;;17.83;92.03
8894;BME280;4483;48.622;9.230;2022-09-03T07:37:40;97532.94;;;17.84;92.00
8894;BME280;4483;48.622;9.230;2022-09-03T07:40:08;97537.81;;;17.89;92.00
8894;BME280;4483;48.622;9.230;2022-09-03T07:42:36;97532.13;;;17.95;91.85
8894;BME280;4483;48.622;9.230;2022-09-03T07:45:06;97537.72;;;18.01;91.98
8894;BME280;4483;48.622;9.230;2022-09-03T07:47:35;97537.63;;;18.14;91.40
8894;BME280;4483;48.622;9.230;2022-09-03T07:50:03;97538.13;;;18.30;91.16
8894;BME280;4483;48.622;9.230;2022-09-03T07:52:30;97541.75;;;18.51;90.42
8894;BME280;4483;48.622;9.230;2022-09-03T07:54:57;97537.91;;;18.77;90.38
8894;BME280;4483;48.622;9.230;2022-09-03T07:57:24;97542.91;;;19.02;88.58
8894;BME280;4483;48.622;9.230;2022-09-03T07:59:52;97539.75;;;19.20;87.88
8894;BME280;4483;48.622;9.230;2022-09-03T08:02:18;97532.50;;;19.34;87.58
8894;BME280;4483;48.622;9.230;2022-09-03T08:04:45;97532.13;;;19.50;86.77
8894;BME280;4483;48.622;9.230;2022-09-03T08:07:12;97531.91;;;19.73;86.07
8894;BME280;4483;48.622;9.230;2022-09-03T08:09:39;97548.31;;;19.96;84.99
8894;BME280;4483;48.622;9.230;2022-09-03T08:12:06;97540.00;;;20.12;84.10
8894;BME280;4483;48.622;9.230;2022-09-03T08:14:32;97552.22;;;20.22;83.22
8894;BME280;4483;48.622;9.230;2022-09-03T08:17:00;97548.81;;;20.31;83.11
8894;BME280;4483;48.622;9.230;2022-09-03T08:19:27;97555.47;;;20.35;81.66
8894;BME280;4483;48.622;9.230;2022-09-03T08:21:53;97554.94;;;20.41;81.73
8894;BME280;4483;48.622;9.230;2022-09-03T08:24:20;97552.97;;;20.54;80.86
8894;BME280;4483;48.622;9.230;2022-09-03T08:26:49;97547.19;;;20.90;79.77
8894;BME280;4483;48.622;9.230;2022-09-03T08:29:15;97548.88;;;21.98;78.37
8894;BME280;4483;48.622;9.230;2022-09-03T08:31:42;97544.72;;;23.07;74.88
8894;BME280;4483;48.622;9.230;2022-09-03T08:34:10;97540.66;;;24.10;70.16
8894;BME280;4483;48.622;9.230;2022-09-03T08:36:39;97540.06;;;24.42;64.63
8894;BME280;4483;48.622;9.230;2022-09-03T08:39:08;97540.59;;;25.05;63.80
8894;BME280;4483;48.622;9.230;2022-09-03T08:44:24;97533.75;;;26.89;55.98
8894;BME280;4483;48.622;9.230;2022-09-03T08:46:58;97531.06;;;27.05;55.28
8894;BME280;4483;48.622;9.230;2022-09-03T08:49:32;97532.00;;;26.81;54.03
8894;BME280;4483;48.622;9.230;2022-09-03T08:52:01;97528.69;;;26.79;53.74
8894;BME280;4483;48.622;9.230;2022-09-03T08:54:31;97529.53;;;26.63;52.53
8894;BME280;4483;48.622;9.230;2022-09-03T08:57:00;97540.44;;;26.60;52.79
8894;BME280;4483;48.622;9.230;2022-09-03T08:59:29;97540.31;;;26.30;52.99
8894;BME280;4483;48.622;9.230;2022-09-03T09:02:01;97546.25;;;25.92;52.98
8894;BME280;4483;48.622;9.230;2022-09-03T09:04:43;97547.56;;;25.79;52.87
8894;BME280;4483;48.622;9.230;2022-09-03T09:07:17;97541.78;;;25.68;53.12
8894;BME280;4483;48.622;9.230;2022-09-03T09:09:54;97555.00;;;25.76;53.17
8894;BME280;4483;48.622;9.230;2022-09-03T09:12:32;97557.94;;;25.81;53.24
8894;BME280;4483;48.622;9.230;2022-09-03T09:15:09;97563.06;;;25.74;53.02
8894;BME280;4483;48.622;9.230;2022-09-03T09:18:06;97556.00;;;26.47;52.33
8894;BME280;4483;48.622;9.230;2022-09-03T09:20:42;97547.66;;;27.83;50.05
8894;BME280;4483;48.622;9.230;2022-09-03T09:23:14;97551.38;;;28.19;47.42
8894;BME280;4483;48.622;9.230;2022-09-03T09:25:46;97551.28;;;28.12;47.29
8894;BME280;4483;48.622;9.230;2022-09-03T09:28:17;97552.59;;;27.94;47.36
8894;BME280;4483;48.622;9.230;2022-09-03T09:30:45;97549.38;;;27.75;47.17
8894;BME280;4483;48.622;9.230;2022-09-03T09:33:12;97559.13;;;27.52;46.79
8894;BME280;4483;48.622;9.230;2022-09-03T09:35:40;97552.09;;;27.29;47.30
8894;BME280;4483;48.622;9.230;2022-09-03T09:38:08;97537.03;;;27.07;47.51
8894;BME280;4483;48.622;9.230;2022-09-03T09:40:36;97548.41;;;27.46;47.93
8894;BME280;4483;48.622;9.230;2022-09-03T09:43:05;97532.66;;;27.52;47.61
8894;BME280;4483;48.622;9.230;2022-09-03T09:45:32;97546.66;;;28.29;45.49
8894;BME280;4483;48.622;9.230;2022-09-03T09:48:00;97534.78;;;28.62;44.98
8894;BME280;4483;48.622;9.230;2022-09-03T09:50:28;97539.25;;;28.91;43.71
8894;BME280;4483;48.622;9.230;2022-09-03T09:53:04;97550.03;;;29.04;43.32
8894;BME280;4483;48.622;9.230;2022-09-03T09:55:48;97542.06;;;29.04;43.49
8894;BME280;4483;48.622;9.230;2022-09-03T09:58:14;97540.41;;;29.03;43.29
8894;BME280;4483;48.622;9.230;2022-09-03T10:00:54;97536.25;;;29.23;43.17
8894;BME280;4483;48.622;9.230;2022-09-03T10:03:20;97529.66;;;28.90;43.06
8894;BME280;4483;48.622;9.230;2022-09-03T10:05:57;97531.81;;;28.71;43.98
8894;BME280;4483;48.622;9.230;2022-09-03T10:08:27;97532.84;;;29.14;43.09
8894;BME280;4483;48.622;9.230;2022-09-03T10:10:53;97531.00;;;29.00;43.34
8894;BME280;4483;48.622;9.230;2022-09-03T10:13:24;97530.47;;;28.75;44.10
8894;BME280;4483;48.622;9.230;2022-09-03T10:15:57;97534.97;;;28.90;44.43
8894;BME280;4483;48.622;9.230;2022-09-03T10:18:37;97530.38;;;29.63;43.79
8894;BME280;4483;48.622;9.230;2022-09-03T10:21:10;97535.81;;;29.76;43.56
8894;BME280;4483;48.622;9.230;2022-09-03T10:23:49;97534.88;;;29.48;43.64
8894;BME280;4483;48.622;9.230;2022-09-03T10:26:20;97536.53;;;29.13;43.81
8894;BME280;4483;48.622;9.230;2022-09-03T10:28:57;97539.63;;;28.73;44.47
8894;BME280;4483;48.622;9.230;2022-09-03T10:31:35;97533.16;;;28.38;45.07
8894;BME280;4483;48.622;9.230;2022-09-03T10:34:09;97536.19;;;27.98;45.54
8894;BME280;4483;48.622;9.230;2022-09-03T10:36:44;97537.38;;;27.65;45.87
8894;BME280;4483;48.622;9.230;2022-09-03T10:39:19;97538.97;;;27.43;46.79
8894;BME280;4483;48.622;9.230;2022-09-03T10:41:56;97540.03;;;27.34;47.06
8894;BME280;4483;48.622;9.230;2022-09-03T10:44:37;97547.03;;;27.19;47.61
8894;BME280;4483;48.622;9.230;2022-09-03T10:47:17;97537.25;;;27.20;47.32
8894;BME280;4483;48.622;9.230;2022-09-03T10:49:53;97531.47;;;27.55;47.03
8894;BME280;4483;48.622;9.230;2022-09-03T10:52:27;97528.06;;;27.69;47.42
8894;BME280;4483;48.622;9.230;2022-09-03T10:55:10;97537.25;;;27.58;47.22
8894;BME280;4483;48.622;9.230;2022-09-03T10:57:46;97525.50;;;27.30;47.61
8894;BME280;4483;48.622;9.230;2022-09-03T11:00:15;97519.47;;;27.06;47.96
8894;BME280;4483;48.622;9.230;2022-09-03T11:05:42;97522.63;;;26.54;49.63
8894;BME280;4483;48.622;9.230;2022-09-03T11:08:17;97521.34;;;26.34;49.85
8894;BME280;4483;48.622;9.230;2022-09-03T11:10:51;97522.03;;;26.20;50.19
8894;BME280;4483;48.622;9.230;2022-09-03T11:13:23;97515.75;;;26.05;50.76
8894;BME280;4483;48.622;9.230;2022-09-03T11:15:57;97527.63;;;25.93;51.05
8894;BME280;4483;48.622;9.230;2022-09-03T11:18:27;97528.59;;;25.76;51.77
8894;BME280;4483;48.622;9.230;2022-09-03T11:20:57;97523.97;;;25.62;52.22
8894;BME280;4483;48.622;9.230;2022-09-03T11:23:31;97525.09;;;25.51;52.23
8894;BME280;4483;48.622;9.230;2022-09-03T11:26:05;97509.03;;;25.37;52.73
8894;BME280;4483;48.622;9.230;2022-09-03T11:28:39;97503.56;;;25.22;53.12
8894;BME280;4483;48.622;9.230;2022-09-03T11:31:19;97511.44;;;25.06;53.76
8894;BME280;4483;48.622;9.230;2022-09-03T11:33:51;97510.50;;;24.81;53.91
8894;BME280;4483;48.622;9.230;2022-09-03T11:36:28;97507.63;;;24.67;54.30
8894;BME280;4483;48.622;9.230;2022-09-03T11:38:56;97506.06;;;24.48;55.42
8894;BME280;4483;48.622;9.230;2022-09-03T11:41:27;97511.00;;;24.26;56.00
8894;BME280;4483;48.622;9.230;2022-09-03T11:43:56;97521.44;;;24.10;56.95
8894;BME280;4483;48.622;9.230;2022-09-03T11:46:28;97532.03;;;24.00;57.18
8894;BME280;4483;48.622;9.230;2022-09-03T11:48:55;97538.03;;;23.92;58.43
8894;BME280;4483;48.622;9.230;2022-09-03T11:51:31;97552.63;;;23.87;58.67
8894;BME280;4483;48.622;9.230;2022-09-03T11:54:01;97563.38;;;23.76;59.92
8894;BME280;4483;48.622;9.230;2022-09-03T11:56:31;97579.22;;;23.66;61.00
8894;BME280;4483;48.622;9.230;2022-09-03T11:59:17;97585.84;;;23.53;61.59
8894;BME280;4483;48.622;9.230;2022-09-03T12:01:48;97632.53;;;23.41;64.28
8894;BME280;4483;48.622;9.230;2022-09-03T12:04:19;97655.03;;;23.17;63.72
8894;BME280;4483;48.622;9.230;2022-09-03T12:07:12;97653.97;;;22.63;64.48
8894;BME280;4483;48.622;9.230;2022-09-03T12:10:01;97663.47;;;21.97;68.27
8894;BME280;4483;48.622;9.230;2022-09-03T12:12:42;97673.25;;;21.37;70.77
8894;BME280;4483;48.622;9.230;2022-09-03T12:15:19;97672.19;;;20.88;73.28
8894;BME280;4483;48.622;9.230;2022-09-03T12:17:51;97662.69;;;20.46;75.18
8894;BME280;4483;48.622;9.230;2022-09-03T12:20:39;97653.34;;;20.01;77.38
8894;BME280;4483;48.622;9.230;2022-09-03T12:23:05;97653.34;;;19.58;80.07
8894;BME280;4483;48.622;9.230;2022-09-03T12:25:32;97653.97;;;19.40;81.92
8894;BME280;4483;48.622;9.230;2022-09-03T12:28:01;97659.44;;;19.26;82.62
8894;BME280;4483;48.622;9.230;2022-09-03T12:30:29;97641.88;;;19.17;83.63
8894;BME280;4483;48.622;9.230;2022-09-03T12:33:03;97640.31;;;19.14;84.32
8894;BME280;4483;48.622;9.230;2022-09-03T12:35:30;97637.34;;;19.19;85.82
8894;BME280;4483;48.622;9.230;2022-09-03T12:37:57;97636.16;;;19.23;86.20
8894;BME280;4483;48.622;9.230;2022-09-03T12:40:26;97627.75;;;19.19;85.95
8894;BME280;4483;48.622;9.230;2022-09-03T12:42:53;97639.72;;;19.22;86.71
8894;BME280;4483;48.622;9.230;2022-09-03T12:45:23;97625.00;;;19.21;86.84
8894;BME280;4483;48.622;9.230;2022-09-03T12:47:51;97633.66;;;19.32;87.65
8894;BME280;4483;48.622;9.230;2022-09-03T12:50:20;97636.53;;;19.40;88.00
8894;BME280;4483;48.622;9.230;2022-09-03T12:52:51;97638.78;;;19.45;88.30
8894;BME280;4483;48.622;9.230;2022-09-03T12:55:26;97642.78;;;19.49;88.91
8894;BME280;4483;48.622;9.230;2022-09-03T12:57:59;97643.97;;;19.56;89.85
8894;BME280;4483;48.622;9.230;2022-09-03T13:00:30;97641.72;;;19.62;90.43
8894;BME280;4483;48.622;9.230;2022-09-03T13:03:01;97638.72;;;19.67;89.48
8894;BME280;4483;48.622;9.230;2022-09-03T13:05:32;97641.09;;;19.70;90.41
8894;BME280;4483;48.622;9.230;2022-09-03T13:08:00;97634.78;;;19.72;91.23
8894;BME280;4483;48.622;9.230;2022-09-03T13:10:29;97640.63;;;19.76;91.11
8894;BME280;4483;48.622;9.230;2022-09-03T13:12:58;97636.31;;;19.75;91.31
8894;BME280;4483;48.622;9.230;2022-09-03T13:15:27;97629.44;;;19.74;91.69
8894;BME280;4483;48.622;9.230;2022-09-03T13:18:07;97636.31;;;19.75;91.42
8894;BME280;4483;48.622;9.230;2022-09-03T13:20:44;97646.88;;;19.84;91.84
8894;BME280;4483;48.622;9.230;2022-09-03T13:23:28;97657.44;;;19.94;92.10
8894;BME280;4483;48.622;9.230;2022-09-03T13:26:03;97650.47;;;20.04;92.10
8894;BME280;4483;48.622;9.230;2022-09-03T13:28:41;97653.78;;;20.17;92.06
8894;BME280;4483;48.622;9.230;2022-09-03T13:31:23;97655.97;;;20.33;90.66
8894;BME280;4483;48.622;9.230;2022-09-03T13:33:57;97653.50;;;20.52;89.47
8894;BME280;4483;48.622;9.230;2022-09-03T13:36:29;97649.84;;;20.64;88.62
8894;BME280;4483;48.622;9.230;2022-09-03T13:38:59;97649.25;;;20.81;87.60
8894;BME280;4483;48.622;9.230;2022-09-03T13:41:34;97648.19;;;21.04;85.87
8894;BME280;4483;48.622;9.230;2022-09-03T13:44:07;97638.59;;;21.24;86.13
8894;BME280;4483;48.622;9.230;2022-09-03T13:46:42;97643.78;;;21.44;85.14
8894;BME280;4483;48.622;9.230;2022-09-03T13:49:20;97637.56;;;21.55;84.39